sensor_id;sensor_type;location;lat;lon;timestamp;temperature;humidity
73509;SHT30;61750;55.036;73.312;2022-10-16T00:01:26;9.27;79.36
73509;SHT30;61750;55.036;73.312;2022-10-16T00:03:54;9.21;79.79
73509;SHT30;61750;55.036;73.312;2022-10-16T00:06:21;9.19;78.67
73509;SHT30;61750;55.036;73.312;2022-10-16T00:08:58;9.21;78.37
73509;SHT30;61750;55.036;73.312;2022-10-16T00:11:25;9.17;78.84
73509;SHT30;61750;55.036;73.312;2022-10-16T00:13:55;9.10;78.81
73509;SHT30;61750;55.036;73.312;2022-10-16T00:16:22;8.94;79.05
73509;SHT30;61750;55.036;73.312;2022-10-16T00:18:48;8.78;79.85
73509;SHT30;61750;55.036;73.312;2022-10-16T00:21:18;8.59;80.54
73509;SHT30;61750;55.036;73.312;2022-10-16T00:23:56;8.39;81.00
73509;SHT30;61750;55.036;73.312;2022-10-16T00:26:25;8.22;81.46
73509;SHT30;61750;55.036;73.312;2022-10-16T00:28:52;8.06;81.73
73509;SHT30;61750;55.036;73.312;2022-10-16T00:31:20;7.96;82.02
73509;SHT30;61750;55.036;73.312;2022-10-16T00:33:47;7.92;82.51
73509;SHT30;61750;55.036;73.312;2022-10-16T00:36:17;7.82;82.22
73509;SHT30;61750;55.036;73.312;2022-10-16T00:38:44;7.72;82.18
73509;SHT30;61750;55.036;73.312;2022-10-16T00:41:16;7.64;82.84
73509;SHT30;61750;55.036;73.312;2022-10-16T00:44:00;7.55;83.29
73509;SHT30;61750;55.036;73.312;2022-10-16T00:46:40;7.52;83.80
73509;SHT30;61750;55.036;73.312;2022-10-16T00:49:13;7.47;83.89
73509;SHT30;61750;55.036;73.312;2022-10-16T00:51:55;7.43;83.86
73509;SHT30;61750;55.036;73.312;2022-10-16T00:54:27;7.50;84.20
73509;SHT30;61750;55.036;73.312;2022-10-16T00:56:57;7.41;83.98
73509;SHT30;61750;55.036;73.312;2022-10-16T00:59:27;7.32;83.96
73509;SHT30;61750;55.036;73.312;2022-10-16T01:01:54;7.23;83.70
73509;SHT30;61750;55.036;73.312;2022-10-16T01:04:22;7.17;84.07
73509;SHT30;61750;55.036;73.312;2022-10-16T01:06:57;7.08;84.18
73509;SHT30;61750;55.036;73.312;2022-10-16T01:09:42;7.01;84.89
73509;SHT30;61750;55.036;73.312;2022-10-16T01:12:45;6.99;85.54
73509;SHT30;61750;55.036;73.312;2022-10-16T01:21:06;6.83;84.59
73509;SHT30;61750;55.036;73.312;2022-10-16T01:35:04;6.69;85.15
73509;SHT30;61750;55.036;73.312;2022-10-16T01:37:42;6.75;85.13
73509;SHT30;61750;55.036;73.312;2022-10-16T01:40:51;6.83;85.01
73509;SHT30;61750;55.036;73.312;2022-10-16T01:43:21;6.87;84.94
73509;SHT30;61750;55.036;73.312;2022-10-16T01:45:48;6.91;84.81
73509;SHT30;61750;55.036;73.312;2022-10-16T01:48:18;6.99;84.43
73509;SHT30;61750;55.036;73.312;2022-10-16T01:51:03;7.10;84.52
73509;SHT30;61750;55.036;73.312;2022-10-16T01:53:31;7.15;84.43
73509;SHT30;61750;55.036;73.312;2022-10-16T01:55:59;7.20;83.82
73509;SHT30;61750;55.036;73.312;2022-10-16T01:58:27;7.28;83.70
73509;SHT30;61750;55.036;73.312;2022-10-16T02:00:54;7.32;83.36
73509;SHT30;61750;55.036;73.312;2022-10-16T02:03:22;7.38;83.31
73509;SHT30;61750;55.036;73.312;2022-10-16T02:05:52;7.45;83.34
73509;SHT30;61750;55.036;73.312;2022-10-16T02:08:27;7.48;82.90
73509;SHT30;61750;55.036;73.312;2022-10-16T02:10:57;7.54;82.68
73509;SHT30;61750;55.036;73.312;2022-10-16T02:13:36;7.61;82.96
73509;SHT30;61750;55.036;73.312;2022-10-16T02:16:13;7.65;83.06
73509;SHT30;61750;55.036;73.312;2022-10-16T02:18:45;7.72;82.73
73509;SHT30;61750;55.036;73.312;2022-10-16T02:21:32;7.76;82.51
73509;SHT30;61750;55.036;73.312;2022-10-16T02:29:49;7.99;81.87
73509;SHT30;61750;55.036;73.312;2022-10-16T02:32:21;8.07;81.69
73509;SHT30;61750;55.036;73.312;2022-10-16T02:34:49;8.20;81.28
73509;SHT30;61750;55.036;73.312;2022-10-16T02:37:17;8.30;80.61
73509;SHT30;61750;55.036;73.312;2022-10-16T02:39:44;8.42;79.77
73509;SHT30;61750;55.036;73.312;2022-10-16T02:42:14;8.56;79.83
73509;SHT30;61750;55.036;73.312;2022-10-16T02:44:40;8.65;79.39
73509;SHT30;61750;55.036;73.312;2022-10-16T02:47:06;8.73;79.19
73509;SHT30;61750;55.036;73.312;2022-10-16T02:49:33;8.80;78.95
73509;SHT30;61750;55.036;73.312;2022-10-16T02:51:59;8.84;78.31
73509;SHT30;61750;55.036;73.312;2022-10-16T02:54:25;8.89;77.38
73509;SHT30;61750;55.036;73.312;2022-10-16T02:56:51;8.97;77.29
73509;SHT30;61750;55.036;73.312;2022-10-16T02:59:17;9.03;77.10
73509;SHT30;61750;55.036;73.312;2022-10-16T03:01:45;9.07;75.52
73509;SHT30;61750;55.036;73.312;2022-10-16T03:04:11;9.14;74.38
73509;SHT30;61750;55.036;73.312;2022-10-16T03:06:37;9.27;74.80
73509;SHT30;61750;55.036;73.312;2022-10-16T03:09:03;9.31;73.70
73509;SHT30;61750;55.036;73.312;2022-10-16T03:11:29;9.39;71.86
73509;SHT30;61750;55.036;73.312;2022-10-16T03:13:55;9.52;71.21
73509;SHT30;61750;55.036;73.312;2022-10-16T03:16:31;9.65;72.11
73509;SHT30;61750;55.036;73.312;2022-10-16T03:19:07;9.75;71.39
73509;SHT30;61750;55.036;73.312;2022-10-16T03:21:34;9.78;70.31
73509;SHT30;61750;55.036;73.312;2022-10-16T03:24:00;9.82;70.08
73509;SHT30;61750;55.036;73.312;2022-10-16T03:26:26;9.83;69.93
73509;SHT30;61750;55.036;73.312;2022-10-16T03:28:52;9.87;69.92
73509;SHT30;61750;55.036;73.312;2022-10-16T03:31:18;9.92;72.00
73509;SHT30;61750;55.036;73.312;2022-10-16T03:33:49;9.96;72.86
73509;SHT30;61750;55.036;73.312;2022-10-16T03:36:16;10.00;71.80
73509;SHT30;61750;55.036;73.312;2022-10-16T03:38:42;10.12;73.43
73509;SHT30;61750;55.036;73.312;2022-10-16T03:41:08;10.16;74.71
73509;SHT30;61750;55.036;73.312;2022-10-16T03:43:34;10.30;73.44
73509;SHT30;61750;55.036;73.312;2022-10-16T03:46:00;10.48;70.26
73509;SHT30;61750;55.036;73.312;2022-10-16T03:48:28;10.64;70.02
73509;SHT30;61750;55.036;73.312;2022-10-16T03:50:54;10.74;67.61
73509;SHT30;61750;55.036;73.312;2022-10-16T03:53:20;10.89;67.11
73509;SHT30;61750;55.036;73.312;2022-10-16T03:55:46;11.01;66.21
73509;SHT30;61750;55.036;73.312;2022-10-16T03:58:12;11.16;67.17
73509;SHT30;61750;55.036;73.312;2022-10-16T04:00:46;11.22;63.84
73509;SHT30;61750;55.036;73.312;2022-10-16T04:03:15;11.31;63.54
73509;SHT30;61750;55.036;73.312;2022-10-16T04:05:43;11.38;63.70
73509;SHT30;61750;55.036;73.312;2022-10-16T04:08:09;11.40;64.58
73509;SHT30;61750;55.036;73.312;2022-10-16T04:10:46;11.42;63.42
73509;SHT30;61750;55.036;73.312;2022-10-16T04:13:13;11.52;63.76
73509;SHT30;61750;55.036;73.312;2022-10-16T04:15:46;11.55;62.88
73509;SHT30;61750;55.036;73.312;2022-10-16T04:18:12;11.59;62.69
73509;SHT30;61750;55.036;73.312;2022-10-16T04:20:46;11.58;63.36
73509;SHT30;61750;55.036;73.312;2022-10-16T04:23:12;11.66;62.76
73509;SHT30;61750;55.036;73.312;2022-10-16T04:25:46;11.69;63.03
73509;SHT30;61750;55.036;73.312;2022-10-16T04:28:12;11.80;62.59
73509;SHT30;61750;55.036;73.312;2022-10-16T04:30:46;11.94;61.57
73509;SHT30;61750;55.036;73.312;2022-10-16T04:33:12;11.97;58.39
73509;SHT30;61750;55.036;73.312;2022-10-16T04:35:39;12.01;59.11
73509;SHT30;61750;55.036;73.312;2022-10-16T04:38:05;12.10;59.81
73509;SHT30;61750;55.036;73.312;2022-10-16T04:40:46;12.23;58.69
73509;SHT30;61750;55.036;73.312;2022-10-16T04:43:13;12.33;58.89
73509;SHT30;61750;55.036;73.312;2022-10-16T04:45:46;12.42;59.31
73509;SHT30;61750;55.036;73.312;2022-10-16T04:48:18;12.49;59.63
73509;SHT30;61750;55.036;73.312;2022-10-16T04:50:46;12.57;58.38
73509;SHT30;61750;55.036;73.312;2022-10-16T04:53:12;12.64;58.03
73509;SHT30;61750;55.036;73.312;2022-10-16T04:55:46;12.72;58.06
73509;SHT30;61750;55.036;73.312;2022-10-16T04:58:23;12.81;58.16
73509;SHT30;61750;55.036;73.312;2022-10-16T05:00:49;12.89;57.68
73509;SHT30;61750;55.036;73.312;2022-10-16T05:03:17;12.99;55.98
73509;SHT30;61750;55.036;73.312;2022-10-16T05:05:44;13.05;57.02
73509;SHT30;61750;55.036;73.312;2022-10-16T05:08:12;13.13;55.85
73509;SHT30;61750;55.036;73.312;2022-10-16T05:10:46;13.30;56.61
73509;SHT30;61750;55.036;73.312;2022-10-16T05:13:12;13.44;56.79
73509;SHT30;61750;55.036;73.312;2022-10-16T05:15:47;13.50;54.60
73509;SHT30;61750;55.036;73.312;2022-10-16T05:18:19;13.67;54.54
73509;SHT30;61750;55.036;73.312;2022-10-16T05:20:46;13.76;54.69
73509;SHT30;61750;55.036;73.312;2022-10-16T05:23:12;13.71;53.09
73509;SHT30;61750;55.036;73.312;2022-10-16T05:25:56;13.60;53.82
73509;SHT30;61750;55.036;73.312;2022-10-16T05:28:29;13.64;53.91
73509;SHT30;61750;55.036;73.312;2022-10-16T05:30:57;13.53;52.97
73509;SHT30;61750;55.036;73.312;2022-10-16T05:33:26;13.57;54.97
73509;SHT30;61750;55.036;73.312;2022-10-16T05:35:52;13.57;52.73
73509;SHT30;61750;55.036;73.312;2022-10-16T05:38:18;13.53;54.14
73509;SHT30;61750;55.036;73.312;2022-10-16T05:40:52;13.53;53.71
73509;SHT30;61750;55.036;73.312;2022-10-16T05:43:19;13.54;53.66
73509;SHT30;61750;55.036;73.312;2022-10-16T05:45:58;13.56;53.96
73509;SHT30;61750;55.036;73.312;2022-10-16T05:48:24;13.63;53.48
73509;SHT30;61750;55.036;73.312;2022-10-16T05:51:00;13.71;55.11
73509;SHT30;61750;55.036;73.312;2022-10-16T05:53:28;13.87;53.34
73509;SHT30;61750;55.036;73.312;2022-10-16T05:56:05;13.83;53.44
73509;SHT30;61750;55.036;73.312;2022-10-16T05:58:38;13.86;54.14
73509;SHT30;61750;55.036;73.312;2022-10-16T06:01:13;13.83;53.44
73509;SHT30;61750;55.036;73.312;2022-10-16T06:03:52;13.88;51.46
73509;SHT30;61750;55.036;73.312;2022-10-16T06:06:21;13.78;51.86
73509;SHT30;61750;55.036;73.312;2022-10-16T06:08:48;13.70;51.89
73509;SHT30;61750;55.036;73.312;2022-10-16T06:11:17;13.70;52.09
73509;SHT30;61750;55.036;73.312;2022-10-16T06:13:44;13.63;52.15
73509;SHT30;61750;55.036;73.312;2022-10-16T06:16:12;13.54;53.10
73509;SHT30;61750;55.036;73.312;2022-10-16T06:18:44;13.50;52.57
73509;SHT30;61750;55.036;73.312;2022-10-16T06:21:17;13.44;52.72
73509;SHT30;61750;55.036;73.312;2022-10-16T06:23:54;13.39;52.97
73509;SHT30;61750;55.036;73.312;2022-10-16T06:26:23;13.38;53.05
73509;SHT30;61750;55.036;73.312;2022-10-16T06:29:00;13.36;53.42
73509;SHT30;61750;55.036;73.312;2022-10-16T06:31:27;13.38;53.48
73509;SHT30;61750;55.036;73.312;2022-10-16T06:33:56;13.53;53.96
73509;SHT30;61750;55.036;73.312;2022-10-16T06:36:24;13.71;53.37
73509;SHT30;61750;55.036;73.312;2022-10-16T06:38:50;13.87;53.80
73509;SHT30;61750;55.036;73.312;2022-10-16T06:41:19;13.96;53.57
73509;SHT30;61750;55.036;73.312;2022-10-16T06:43:46;14.01;53.69
73509;SHT30;61750;55.036;73.312;2022-10-16T06:46:17;14.01;53.42
73509;SHT30;61750;55.036;73.312;2022-10-16T06:48:47;14.00;54.00
73509;SHT30;61750;55.036;73.312;2022-10-16T06:51:16;13.97;53.95
73509;SHT30;61750;55.036;73.312;2022-10-16T06:53:44;13.90;54.73
73509;SHT30;61750;55.036;73.312;2022-10-16T06:56:24;14.01;54.54
73509;SHT30;61750;55.036;73.312;2022-10-16T06:58:51;14.01;54.41
73509;SHT30;61750;55.036;73.312;2022-10-16T07:01:20;14.14;54.42
73509;SHT30;61750;55.036;73.312;2022-10-16T07:03:47;14.28;55.09
73509;SHT30;61750;55.036;73.312;2022-10-16T07:06:23;14.29;55.59
73509;SHT30;61750;55.036;73.312;2022-10-16T07:08:50;14.38;55.18
73509;SHT30;61750;55.036;73.312;2022-10-16T07:11:19;14.45;55.23
73509;SHT30;61750;55.036;73.312;2022-10-16T07:13:55;14.46;54.55
73509;SHT30;61750;55.036;73.312;2022-10-16T07:16:29;14.34;55.38
73509;SHT30;61750;55.036;73.312;2022-10-16T07:19:06;14.34;55.53
73509;SHT30;61750;55.036;73.312;2022-10-16T07:21:33;14.37;55.46
73509;SHT30;61750;55.036;73.312;2022-10-16T07:24:05;14.52;55.38
73509;SHT30;61750;55.036;73.312;2022-10-16T07:26:34;14.55;58.08
73509;SHT30;61750;55.036;73.312;2022-10-16T07:29:01;14.59;57.62
73509;SHT30;61750;55.036;73.312;2022-10-16T07:31:28;14.67;56.90
73509;SHT30;61750;55.036;73.312;2022-10-16T07:33:54;14.81;59.16
73509;SHT30;61750;55.036;73.312;2022-10-16T07:36:21;15.00;57.55
73509;SHT30;61750;55.036;73.312;2022-10-16T07:38:47;15.06;56.91
73509;SHT30;61750;55.036;73.312;2022-10-16T07:41:16;15.13;57.51
73509;SHT30;61750;55.036;73.312;2022-10-16T07:43:47;15.20;58.14
73509;SHT30;61750;55.036;73.312;2022-10-16T07:46:14;15.18;55.28
73509;SHT30;61750;55.036;73.312;2022-10-16T07:48:42;15.13;56.82
73509;SHT30;61750;55.036;73.312;2022-10-16T07:51:18;15.14;56.49
73509;SHT30;61750;55.036;73.312;2022-10-16T07:53:45;15.24;56.34
73509;SHT30;61750;55.036;73.312;2022-10-16T07:56:12;15.33;56.22
73509;SHT30;61750;55.036;73.312;2022-10-16T07:58:39;15.40;56.34
73509;SHT30;61750;55.036;73.312;2022-10-16T08:01:09;15.57;55.03
73509;SHT30;61750;55.036;73.312;2022-10-16T08:03:36;15.90;55.04
73509;SHT30;61750;55.036;73.312;2022-10-16T08:06:04;16.20;54.55
73509;SHT30;61750;55.036;73.312;2022-10-16T08:08:30;16.18;53.78
73509;SHT30;61750;55.036;73.312;2022-10-16T08:10:56;16.26;54.04
73509;SHT30;61750;55.036;73.312;2022-10-16T08:13:23;16.22;53.45
73509;SHT30;61750;55.036;73.312;2022-10-16T08:15:51;16.32;53.90
73509;SHT30;61750;55.036;73.312;2022-10-16T08:18:19;16.25;52.93
73509;SHT30;61750;55.036;73.312;2022-10-16T08:20:58;16.12;53.79
73509;SHT30;61750;55.036;73.312;2022-10-16T08:23:25;16.12;52.84
73509;SHT30;61750;55.036;73.312;2022-10-16T08:25:53;15.88;52.92
73509;SHT30;61750;55.036;73.312;2022-10-16T08:28:19;15.88;53.41
73509;SHT30;61750;55.036;73.312;2022-10-16T08:30:46;15.88;54.52
73509;SHT30;61750;55.036;73.312;2022-10-16T08:33:13;15.88;55.20
73509;SHT30;61750;55.036;73.312;2022-10-16T08:35:39;15.96;54.44
73509;SHT30;61750;55.036;73.312;2022-10-16T08:38:06;15.98;53.61
73509;SHT30;61750;55.036;73.312;2022-10-16T08:40:46;16.04;54.15
73509;SHT30;61750;55.036;73.312;2022-10-16T08:48:47;15.80;55.03
73509;SHT30;61750;55.036;73.312;2022-10-16T08:51:20;15.47;55.43
73509;SHT30;61750;55.036;73.312;2022-10-16T08:53:52;15.19;56.39
73509;SHT30;61750;55.036;73.312;2022-10-16T08:56:20;14.96;57.08
73509;SHT30;61750;55.036;73.312;2022-10-16T08:58:47;14.85;57.75
73509;SHT30;61750;55.036;73.312;2022-10-16T09:01:16;14.62;57.82
73509;SHT30;61750;55.036;73.312;2022-10-16T09:06:42;14.41;58.45
73509;SHT30;61750;55.036;73.312;2022-10-16T09:11:46;14.44;58.72
73509;SHT30;61750;55.036;73.312;2022-10-16T09:14:52;14.39;57.80
73509;SHT30;61750;55.036;73.312;2022-10-16T09:21:07;14.49;57.91
73509;SHT30;61750;55.036;73.312;2022-10-16T09:23:36;14.55;58.84
73509;SHT30;61750;55.036;73.312;2022-10-16T09:26:05;14.54;57.83
73509;SHT30;61750;55.036;73.312;2022-10-16T09:28:31;14.38;58.31
73509;SHT30;61750;55.036;73.312;2022-10-16T09:30:58;14.29;58.47
73509;SHT30;61750;55.036;73.312;2022-10-16T09:33:29;14.25;59.09
73509;SHT30;61750;55.036;73.312;2022-10-16T09:35:57;14.25;59.37
73509;SHT30;61750;55.036;73.312;2022-10-16T09:38:28;14.18;59.95
73509;SHT30;61750;55.036;73.312;2022-10-16T09:40:57;13.97;60.41
73509;SHT30;61750;55.036;73.312;2022-10-16T09:43:26;13.88;60.76
73509;SHT30;61750;55.036;73.312;2022-10-16T09:46:20;13.74;61.44
73509;SHT30;61750;55.036;73.312;2022-10-16T09:48:49;13.67;61.75
73509;SHT30;61750;55.036;73.312;2022-10-16T09:51:30;13.62;61.86
73509;SHT30;61750;55.036;73.312;2022-10-16T09:54:00;13.50;62.06
73509;SHT30;61750;55.036;73.312;2022-10-16T09:56:32;13.47;62.36
73509;SHT30;61750;55.036;73.312;2022-10-16T09:59:03;13.44;63.01
73509;SHT30;61750;55.036;73.312;2022-10-16T10:01:52;13.49;62.67
73509;SHT30;61750;55.036;73.312;2022-10-16T10:04:21;13.69;62.46
73509;SHT30;61750;55.036;73.312;2022-10-16T10:06:55;14.07;62.06
73509;SHT30;61750;55.036;73.312;2022-10-16T10:09:28;14.34;61.94
73509;SHT30;61750;55.036;73.312;2022-10-16T10:12:03;14.48;62.45
73509;SHT30;61750;55.036;73.312;2022-10-16T10:14:36;14.39;61.49
73509;SHT30;61750;55.036;73.312;2022-10-16T10:19:53;13.83;63.09
73509;SHT30;61750;55.036;73.312;2022-10-16T10:22:29;14.21;61.97
73509;SHT30;61750;55.036;73.312;2022-10-16T10:25:19;13.83;62.70
73509;SHT30;61750;55.036;73.312;2022-10-16T10:30:59;13.73;63.84
73509;SHT30;61750;55.036;73.312;2022-10-16T10:41:27;13.20;65.69
73509;SHT30;61750;55.036;73.312;2022-10-16T10:44:22;12.87;66.38
73509;SHT30;61750;55.036;73.312;2022-10-16T10:55:10;12.45;65.86
73509;SHT30;61750;55.036;73.312;2022-10-16T11:01:06;12.38;67.37
73509;SHT30;61750;55.036;73.312;2022-10-16T11:06:50;12.33;67.83
73509;SHT30;61750;55.036;73.312;2022-10-16T11:09:42;12.21;69.17
73509;SHT30;61750;55.036;73.312;2022-10-16T11:12:35;12.14;70.27
73509;SHT30;61750;55.036;73.312;2022-10-16T11:17:54;12.06;69.63
73509;SHT30;61750;55.036;73.312;2022-10-16T11:20:56;12.00;70.41
73509;SHT30;61750;55.036;73.312;2022-10-16T11:23:31;11.93;71.34
73509;SHT30;61750;55.036;73.312;2022-10-16T11:26:02;11.87;71.94
73509;SHT30;61750;55.036;73.312;2022-10-16T11:28:50;11.86;71.73
73509;SHT30;61750;55.036;73.312;2022-10-16T11:34:23;11.74;70.44
73509;SHT30;61750;55.036;73.312;2022-10-16T11:37:14;11.70;70.47
73509;SHT30;61750;55.036;73.312;2022-10-16T11:39:44;11.69;71.09
73509;SHT30;61750;55.036;73.312;2022-10-16T11:44:51;11.59;72.26
73509;SHT30;61750;55.036;73.312;2022-10-16T11:47:43;11.55;72.48
73509;SHT30;61750;55.036;73.312;2022-10-16T11:51:07;11.47;72.75
73509;SHT30;61750;55.036;73.312;2022-10-16T11:53:48;11.47;72.87
73509;SHT30;61750;55.036;73.312;2022-10-16T11:56:20;11.46;73.10
73509;SHT30;61750;55.036;73.312;2022-10-16T12:04:41;11.42;72.43
73509;SHT30;61750;55.036;73.312;2022-10-16T12:07:18;11.38;72.06
73509;SHT30;61750;55.036;73.312;2022-10-16T12:09:45;11.33;71.88
73509;SHT30;61750;55.036;73.312;2022-10-16T12:12:37;11.32;71.80
73509;SHT30;61750;55.036;73.312;2022-10-16T12:17:57;11.26;71.75
73509;SHT30;61750;55.036;73.312;2022-10-16T12:20:55;11.18;72.02
73509;SHT30;61750;55.036;73.312;2022-10-16T12:23:24;11.15;72.07
73509;SHT30;61750;55.036;73.312;2022-10-16T12:25:55;11.14;71.70
73509;SHT30;61750;55.036;73.312;2022-10-16T12:28:26;11.11;71.74
73509;SHT30;61750;55.036;73.312;2022-10-16T12:30:57;11.15;71.98
73509;SHT30;61750;55.036;73.312;2022-10-16T12:33:29;11.12;71.95
73509;SHT30;61750;55.036;73.312;2022-10-16T12:36:04;11.12;71.95
73509;SHT30;61750;55.036;73.312;2022-10-16T12:38:46;11.11;72.07
73509;SHT30;61750;55.036;73.312;2022-10-16T12:41:27;11.08;72.12
73509;SHT30;61750;55.036;73.312;2022-10-16T12:43:54;11.07;72.37
73509;SHT30;61750;55.036;73.312;2022-10-16T12:51:38;10.94;72.48
73509;SHT30;61750;55.036;73.312;2022-10-16T12:54:19;10.91;72.52
73509;SHT30;61750;55.036;73.312;2022-10-16T13:00:04;10.95;72.65
73509;SHT30;61750;55.036;73.312;2022-10-16T13:19:50;10.85;73.78
73509;SHT30;61750;55.036;73.312;2022-10-16T13:28:17;10.71;73.92
73509;SHT30;61750;55.036;73.312;2022-10-16T13:30:55;10.68;74.13
73509;SHT30;61750;55.036;73.312;2022-10-16T13:33:32;10.65;74.15
73509;SHT30;61750;55.036;73.312;2022-10-16T13:35:59;10.64;74.21
73509;SHT30;61750;55.036;73.312;2022-10-16T13:38:31;10.64;74.31
73509;SHT30;61750;55.036;73.312;2022-10-16T13:40:59;10.60;74.56
73509;SHT30;61750;55.036;73.312;2022-10-16T13:43:35;10.57;74.87
73509;SHT30;61750;55.036;73.312;2022-10-16T13:46:10;10.44;74.98
73509;SHT30;61750;55.036;73.312;2022-10-16T13:48:37;10.38;75.17
73509;SHT30;61750;55.036;73.312;2022-10-16T13:51:18;10.32;75.34
73509;SHT30;61750;55.036;73.312;2022-10-16T13:53:56;10.17;75.68
73509;SHT30;61750;55.036;73.312;2022-10-16T13:56:28;10.03;75.79
73509;SHT30;61750;55.036;73.312;2022-10-16T13:58:59;9.90;76.28
73509;SHT30;61750;55.036;73.312;2022-10-16T14:01:29;9.82;76.79
73509;SHT30;61750;55.036;73.312;2022-10-16T14:04:02;9.78;76.95
73509;SHT30;61750;55.036;73.312;2022-10-16T14:06:36;9.73;76.82
73509;SHT30;61750;55.036;73.312;2022-10-16T14:09:08;9.70;77.10
73509;SHT30;61750;55.036;73.312;2022-10-16T14:11:48;9.72;77.22
73509;SHT30;61750;55.036;73.312;2022-10-16T14:14:18;9.76;77.29
73509;SHT30;61750;55.036;73.312;2022-10-16T14:16:46;9.76;77.24
73509;SHT30;61750;55.036;73.312;2022-10-16T14:19:25;9.69;77.19
73509;SHT30;61750;55.036;73.312;2022-10-16T14:21:52;9.68;77.30
73509;SHT30;61750;55.036;73.312;2022-10-16T14:24:27;9.66;77.54
73509;SHT30;61750;55.036;73.312;2022-10-16T14:26:57;9.59;77.47
73509;SHT30;61750;55.036;73.312;2022-10-16T14:29:29;9.50;77.71
73509;SHT30;61750;55.036;73.312;2022-10-16T14:32:03;9.40;78.04
73509;SHT30;61750;55.036;73.312;2022-10-16T14:34:37;9.29;78.57
73509;SHT30;61750;55.036;73.312;2022-10-16T14:37:18;9.18;78.95
73509;SHT30;61750;55.036;73.312;2022-10-16T14:39:50;9.10;79.50
73509;SHT30;61750;55.036;73.312;2022-10-16T14:42:19;9.03;79.40
73509;SHT30;61750;55.036;73.312;2022-10-16T14:44:46;8.91;79.19
73509;SHT30;61750;55.036;73.312;2022-10-16T14:47:15;8.85;79.83
73509;SHT30;61750;55.036;73.312;2022-10-16T14:49:43;8.77;80.24
73509;SHT30;61750;55.036;73.312;2022-10-16T14:52:12;8.75;80.58
73509;SHT30;61750;55.036;73.312;2022-10-16T14:54:38;8.80;80.09
73509;SHT30;61750;55.036;73.312;2022-10-16T14:57:05;8.71;80.17
73509;SHT30;61750;55.036;73.312;2022-10-16T14:59:40;8.65;80.42
73509;SHT30;61750;55.036;73.312;2022-10-16T15:04:51;8.67;80.32
73509;SHT30;61750;55.036;73.312;2022-10-16T15:07:18;8.61;80.07
73509;SHT30;61750;55.036;73.312;2022-10-16T15:09:44;8.44;78.78
73509;SHT30;61750;55.036;73.312;2022-10-16T15:12:10;8.16;78.93
73509;SHT30;61750;55.036;73.312;2022-10-16T15:14:37;8.06;80.44
73509;SHT30;61750;55.036;73.312;2022-10-16T15:17:03;7.99;81.30
73509;SHT30;61750;55.036;73.312;2022-10-16T15:19:29;7.93;81.40
73509;SHT30;61750;55.036;73.312;2022-10-16T15:21:56;7.85;81.41
73509;SHT30;61750;55.036;73.312;2022-10-16T15:24:32;7.78;81.54
73509;SHT30;61750;55.036;73.312;2022-10-16T15:27:03;7.92;82.23
73509;SHT30;61750;55.036;73.312;2022-10-16T15:29:30;8.10;81.43
73509;SHT30;61750;55.036;73.312;2022-10-16T15:31:56;8.30;80.60
73509;SHT30;61750;55.036;73.312;2022-10-16T15:34:22;8.53;79.71
73509;SHT30;61750;55.036;73.312;2022-10-16T15:36:48;8.65;79.07
73509;SHT30;61750;55.036;73.312;2022-10-16T15:39:17;8.73;78.87
73509;SHT30;61750;55.036;73.312;2022-10-16T15:41:45;8.81;78.41
73509;SHT30;61750;55.036;73.312;2022-10-16T15:44:17;8.91;77.98
73509;SHT30;61750;55.036;73.312;2022-10-16T15:46:43;8.89;77.81
73509;SHT30;61750;55.036;73.312;2022-10-16T15:49:10;9.03;77.65
73509;SHT30;61750;55.036;73.312;2022-10-16T15:51:46;9.11;77.36
73509;SHT30;61750;55.036;73.312;2022-10-16T15:54:13;9.21;76.45
73509;SHT30;61750;55.036;73.312;2022-10-16T15:56:39;9.28;76.14
73509;SHT30;61750;55.036;73.312;2022-10-16T15:59:05;9.35;76.02
73509;SHT30;61750;55.036;73.312;2022-10-16T16:01:33;9.46;76.06
73509;SHT30;61750;55.036;73.312;2022-10-16T16:04:00;9.55;75.62
73509;SHT30;61750;55.036;73.312;2022-10-16T16:06:26;9.59;75.10
73509;SHT30;61750;55.036;73.312;2022-10-16T16:08:53;9.68;75.14
73509;SHT30;61750;55.036;73.312;2022-10-16T16:11:24;9.70;75.18
73509;SHT30;61750;55.036;73.312;2022-10-16T16:13:50;9.73;75.48
73509;SHT30;61750;55.036;73.312;2022-10-16T16:16:17;9.73;75.23
73509;SHT30;61750;55.036;73.312;2022-10-16T16:18:45;9.78;75.18
73509;SHT30;61750;55.036;73.312;2022-10-16T16:21:12;9.76;75.14
73509;SHT30;61750;55.036;73.312;2022-10-16T16:23:38;9.72;75.15
73509;SHT30;61750;55.036;73.312;2022-10-16T16:26:15;9.70;75.33
73509;SHT30;61750;55.036;73.312;2022-10-16T16:28:42;9.66;75.47
73509;SHT30;61750;55.036;73.312;2022-10-16T16:31:14;9.65;75.57
73509;SHT30;61750;55.036;73.312;2022-10-16T16:33:40;9.60;75.57
73509;SHT30;61750;55.036;73.312;2022-10-16T16:36:06;9.56;75.86
73509;SHT30;61750;55.036;73.312;2022-10-16T16:38:33;9.55;75.78
73509;SHT30;61750;55.036;73.312;2022-10-16T16:41:00;9.58;75.62
73509;SHT30;61750;55.036;73.312;2022-10-16T16:43:36;9.58;75.80
73509;SHT30;61750;55.036;73.312;2022-10-16T16:46:02;9.59;75.75
73509;SHT30;61750;55.036;73.312;2022-10-16T16:48:28;9.65;75.35
73509;SHT30;61750;55.036;73.312;2022-10-16T16:50:54;9.72;75.11
73509;SHT30;61750;55.036;73.312;2022-10-16T16:53:20;9.79;74.43
73509;SHT30;61750;55.036;73.312;2022-10-16T16:55:47;9.80;74.56
73509;SHT30;61750;55.036;73.312;2022-10-16T16:58:13;9.90;74.67
73509;SHT30;61750;55.036;73.312;2022-10-16T17:00:46;9.89;73.71
73509;SHT30;61750;55.036;73.312;2022-10-16T17:03:12;9.93;73.84
73509;SHT30;61750;55.036;73.312;2022-10-16T17:05:38;9.90;74.27
73509;SHT30;61750;55.036;73.312;2022-10-16T17:08:08;9.90;74.71
73509;SHT30;61750;55.036;73.312;2022-10-16T17:10:46;9.79;75.09
73509;SHT30;61750;55.036;73.312;2022-10-16T17:13:18;9.72;75.61
73509;SHT30;61750;55.036;73.312;2022-10-16T17:15:47;9.59;75.87
73509;SHT30;61750;55.036;73.312;2022-10-16T17:18:13;9.53;75.94
73509;SHT30;61750;55.036;73.312;2022-10-16T17:20:46;9.50;75.64
73509;SHT30;61750;55.036;73.312;2022-10-16T17:23:18;9.49;75.80
73509;SHT30;61750;55.036;73.312;2022-10-16T17:25:46;9.49;75.86
73509;SHT30;61750;55.036;73.312;2022-10-16T17:28:13;9.49;75.88
73509;SHT30;61750;55.036;73.312;2022-10-16T17:30:46;9.46;75.96
73509;SHT30;61750;55.036;73.312;2022-10-16T17:33:13;9.39;76.16
73509;SHT30;61750;55.036;73.312;2022-10-16T17:35:42;9.32;76.31
73509;SHT30;61750;55.036;73.312;2022-10-16T17:38:14;9.24;76.46
73509;SHT30;61750;55.036;73.312;2022-10-16T17:40:46;9.24;76.82
73509;SHT30;61750;55.036;73.312;2022-10-16T17:43:13;9.28;77.05
73509;SHT30;61750;55.036;73.312;2022-10-16T17:45:46;9.31;77.42